Time;durP1;ratioP1;P1;durP2;ratioP2;P2;SDS_P1;SDS_P2;PMS_P1;PMS_P2;Temp;Humidity;BMP_temperature;BMP_pressure;BME280_temperature;BME280_humidity;BME280_pressure;Samples;Min_cycle;Max_cycle;Signal;HPM_P1;HPM_P2
2023/07/02 00:00:51;;;;;;;5.07;3.90;;;;;;;17.60;100.00;99767.97;4795191;29;21014;-72
2023/07/02 00:03:21;;;;;;;4.87;4.47;;;;;;;17.62;100.00;99773.97;4795438;29;20424;-71
2023/07/02 00:05:54;;;;;;;4.87;4.37;;;;;;;17.60;100.00;99772.59;4790342;29;20858;-71
2023/07/02 00:08:23;;;;;;;5.47;4.80;;;;;;;17.56;100.00;99772.31;4794162;29;20429;-70
2023/07/02 00:10:52;;;;;;;5.20;4.70;;;;;;;17.57;100.00;99773.94;4802472;29;20417;-70
2023/07/02 00:13:23;;;;;;;6.63;4.77;;;;;;;17.55;100.00;99770.66;4801892;29;20449;-70
2023/07/02 00:15:52;;;;;;;8.87;4.70;;;;;;;17.48;100.00;99769.28;4804952;29;20767;-70
2023/07/02 00:18:21;;;;;;;5.20;4.20;;;;;;;17.53;100.00;99775.56;4795684;29;20943;-71
2023/07/02 00:20:50;;;;;;;4.00;3.70;;;;;;;17.51;100.00;99768.75;4797121;29;20552;-69
2023/07/02 00:23:21;;;;;;;4.60;4.20;;;;;;;17.52;100.00;99770.41;4799056;29;20486;-70
2023/07/02 00:25:50;;;;;;;4.80;4.40;;;;;;;17.52;100.00;99770.41;4811011;29;20459;-70
2023/07/02 00:28:19;;;;;;;4.70;4.30;;;;;;;17.57;100.00;99775.88;4794327;29;20442;-70
2023/07/02 00:30:49;;;;;;;7.70;4.57;;;;;;;17.52;100.00;99773.13;4793919;29;20782;-69
2023/07/02 00:33:18;;;;;;;4.50;4.00;;;;;;;17.43;100.00;99777.53;4800015;29;20490;-69
2023/07/02 00:35:47;;;;;;;4.37;4.07;;;;;;;17.41;100.00;99775.06;4789785;29;20460;-69
2023/07/02 00:38:16;;;;;;;7.57;5.23;;;;;;;17.42;100.00;99787.63;4790854;29;20487;-71
2023/07/02 00:40:45;;;;;;;8.53;6.50;;;;;;;17.46;100.00;99780.53;4801301;29;20417;-71
2023/07/02 00:43:15;;;;;;;6.20;4.20;;;;;;;17.45;100.00;99778.06;4798350;29;20447;-71
2023/07/02 00:45:45;;;;;;;4.97;4.57;;;;;;;17.47;100.00;99790.38;4796430;29;20414;-71
2023/07/02 00:48:15;;;;;;;4.50;4.10;;;;;;;17.42;100.00;99795.84;4793724;29;20463;-70
2023/07/02 00:50:44;;;;;;;4.93;4.53;;;;;;;17.32;100.00;99793.09;4792296;29;20413;-70
2023/07/02 00:53:14;;;;;;;5.07;4.67;;;;;;;17.30;100.00;99792.53;4793413;29;20432;-70
2023/07/02 00:55:43;;;;;;;5.27;4.87;;;;;;;17.31;100.00;99794.19;4791040;29;20443;-69
2023/07/02 00:58:15;;;;;;;5.40;4.90;;;;;;;17.39;100.00;99790.91;4787618;29;20490;-72
2023/07/02 01:00:45;;;;;;;5.53;5.03;;;;;;;17.33;100.00;99787.34;4795607;29;20434;-70
2023/07/02 01:03:15;;;;;;;5.50;5.00;;;;;;;17.39;100.00;99799.09;4797176;29;20902;-71
2023/07/02 01:05:44;;;;;;;6.37;5.87;;;;;;;17.30;100.00;99792.53;4801601;29;20439;-71
2023/07/02 01:08:14;;;;;;;6.47;4.90;;;;;;;17.37;100.00;99795.84;4786613;29;20530;-70
2023/07/02 01:10:43;;;;;;;5.67;5.17;;;;;;;17.38;100.00;99789.25;4793708;29;20494;-69
2023/07/02 01:13:19;;;;;;;5.30;4.80;;;;;;;17.22;100.00;99793.09;4792763;29;20919;-71
2023/07/02 01:15:49;;;;;;;8.70;7.07;;;;;;;17.21;100.00;99796.91;4787587;29;20413;-70
2023/07/02 01:18:19;;;;;;;6.27;5.67;;;;;;;17.16;100.00;99794.19;4793871;29;20532;-72
2023/07/02 01:20:50;;;;;;;7.40;6.40;;;;;;;17.17;100.00;99796.66;4797459;29;20983;-70
2023/07/02 01:23:19;;;;;;;7.00;6.30;;;;;;;17.10;100.00;99797.97;4789002;29;20426;-69
2023/07/02 01:25:48;;;;;;;7.20;6.60;;;;;;;17.09;100.00;99799.09;4800978;29;20414;-70
2023/07/02 01:28:17;;;;;;;7.20;6.57;;;;;;;17.08;100.00;99802.91;4801077;29;20463;-68
2023/07/02 01:30:46;;;;;;;7.77;7.27;;;;;;;17.03;100.00;99806.47;4802968;29;20421;-69
2023/07/02 01:33:16;;;;;;;9.90;6.83;;;;;;;17.02;100.00;99804.00;4789423;29;20479;-70
2023/07/02 01:35:46;;;;;;;9.30;7.80;;;;;;;16.94;100.00;99806.16;4799259;29;20426;-70
2023/07/02 01:38:17;;;;;;;8.00;6.87;;;;;;;16.84;100.00;99802.59;4803957;29;20468;-71
2023/07/02 01:40:46;;;;;;;9.53;8.67;;;;;;;16.84;100.00;99803.44;4800444;29;21038;-71
2023/07/02 01:43:16;;;;;;;9.20;8.30;;;;;;;16.92;100.00;99802.88;4798535;29;20437;-70
2023/07/02 01:45:45;;;;;;;10.47;8.70;;;;;;;16.89;100.00;99806.13;4797541;29;20451;-69
2023/07/02 01:48:14;;;;;;;9.87;8.77;;;;;;;16.91;100.00;99803.97;4795276;29;20476;-70
2023/07/02 01:50:43;;;;;;;10.00;9.10;;;;;;;17.03;100.00;99808.38;4793203;29;21011;-70
2023/07/02 01:53:13;;;;;;;9.70;8.80;;;;;;;16.99;100.00;99807.28;4795468;29;20459;-70
2023/07/02 01:55:43;;;;;;;8.63;7.83;;;;;;;17.05;100.00;99817.09;4812365;29;20513;-70
2023/07/02 01:58:12;;;;;;;9.67;8.80;;;;;;;17.00;100.00;99817.91;4794484;29;20511;-70
2023/07/02 02:00:41;;;;;;;10.90;8.40;;;;;;;16.96;100.00;99814.09;4789255;29;20449;-71
2023/07/02 02:03:10;;;;;;;9.00;8.30;;;;;;;16.93;100.00;99811.91;4797358;29;20440;-69
2023/07/02 02:05:39;;;;;;;9.67;8.87;;;;;;;16.87;100.00;99813.81;4819170;29;20425;-72
2023/07/02 02:08:08;;;;;;;9.90;9.03;;;;;;;16.87;100.00;99821.19;4792413;29;20449;-71
2023/07/02 02:10:39;;;;;;;15.70;9.63;;;;;;;16.89;100.00;99817.06;4791705;29;20681;-70
2023/07/02 02:13:10;;;;;;;13.17;12.03;;;;;;;16.81;100.00;99817.59;4790929;29;20414;-71
2023/07/02 02:15:39;;;;;;;11.47;10.47;;;;;;;16.80;100.00;99820.59;4803479;29;20441;-70
2023/07/02 02:18:08;;;;;;;13.57;12.13;;;;;;;16.86;100.00;99817.63;4797083;29;20462;-69
2023/07/02 02:20:37;;;;;;;13.70;10.90;;;;;;;16.78;100.00;99829.09;4787710;29;20421;-71
2023/07/02 02:23:06;;;;;;;12.53;11.37;;;;;;;16.79;100.00;99828.00;4806300;29;20534;-68
2023/07/02 02:25:35;;;;;;;11.90;10.73;;;;;;;16.75;100.00;99835.06;4789159;29;20422;-72
2023/07/02 02:28:04;;;;;;;13.50;12.40;;;;;;;16.73;100.00;99829.06;4791248;29;20971;-70
2023/07/02 02:30:35;;;;;;;13.03;11.70;;;;;;;16.69;100.00;99827.13;4803052;29;20491;-70
2023/07/02 02:33:04;;;;;;;12.63;11.47;;;;;;;16.71;100.00;99831.22;4794669;29;20422;-69
2023/07/02 02:35:34;;;;;;;12.40;10.40;;;;;;;16.63;100.00;99839.94;4790265;29;20797;-70
2023/07/02 02:38:05;;;;;;;11.87;10.90;;;;;;;16.69;100.00;99838.06;4812967;29;20819;-70
2023/07/02 02:40:34;;;;;;;12.70;11.50;;;;;;;16.58;100.00;99831.75;4795670;29;20431;-68
2023/07/02 02:43:05;;;;;;;14.83;10.77;;;;;;;16.52;100.00;99833.59;4797294;29;20433;-70
2023/07/02 02:45:36;;;;;;;11.47;10.47;;;;;;;16.53;100.00;99829.78;4790550;29;20450;-71
2023/07/02 02:48:05;;;;;;;10.53;9.63;;;;;;;16.50;100.00;99827.59;4792290;29;20437;-70
2023/07/02 02:50:34;;;;;;;10.90;9.80;;;;;;;16.52;100.00;99830.03;4787138;29;20482;-69
2023/07/02 02:53:04;;;;;;;11.37;10.27;;;;;;;16.52;100.00;99827.31;4796249;29;20906;-71
2023/07/02 02:55:33;;;;;;;12.00;11.00;;;;;;;16.50;100.00;99829.50;4790927;29;20947;-69
2023/07/02 02:58:02;;;;;;;11.17;10.17;;;;;;;16.42;100.00;99832.72;4793729;29;20464;-70
2023/07/02 03:00:31;;;;;;;12.20;11.10;;;;;;;16.39;100.00;99828.63;4802026;29;20992;-69
2023/07/02 03:03:02;;;;;;;12.70;11.37;;;;;;;16.37;100.00;99835.41;4805221;29;20456;-69
2023/07/02 03:05:32;;;;;;;12.83;10.87;;;;;;;16.35;100.00;99843.06;4803202;29;21006;-70
2023/07/02 03:08:01;;;;;;;11.10;9.97;;;;;;;16.37;100.00;99835.41;4797392;29;20459;-69
2023/07/02 03:10:30;;;;;;;14.93;10.00;;;;;;;16.37;100.00;99849.91;4788777;29;20434;-67
2023/07/02 03:12:59;;;;;;;10.50;9.50;;;;;;;16.35;100.00;99838.44;4794133;29;20426;-70
2023/07/02 03:15:28;;;;;;;11.73;10.60;;;;;;;16.35;100.00;99849.34;4790387;29;20438;-71
2023/07/02 03:17:57;;;;;;;10.80;9.70;;;;;;;16.31;100.00;99845.53;4792286;29;20438;-70
2023/07/02 03:20:27;;;;;;;12.77;9.80;;;;;;;16.33;100.00;99847.97;4793369;29;20484;-70
2023/07/02 03:22:56;;;;;;;11.60;9.23;;;;;;;16.35;100.00;99848.53;4799939;29;20828;-70
2023/07/02 03:25:25;;;;;;;9.83;8.93;;;;;;;16.44;100.00;99852.41;4791298;29;20414;-70
2023/07/02 03:27:54;;;;;;;10.43;9.27;;;;;;;16.41;100.00;99852.94;4790615;29;20432;-70
2023/07/02 03:30:23;;;;;;;11.10;9.97;;;;;;;16.44;100.00;99852.41;4795978;29;20437;-71
2023/07/02 03:32:52;;;;;;;10.43;9.13;;;;;;;16.51;100.00;99847.50;4794514;29;20910;-71
2023/07/02 03:35:22;;;;;;;10.50;9.60;;;;;;;16.49;100.00;99857.88;4799927;29;20531;-70
2023/07/02 03:37:52;;;;;;;10.80;8.33;;;;;;;16.57;100.00;99846.44;4798410;29;20448;-69
2023/07/02 03:40:21;;;;;;;10.67;9.57;;;;;;;16.58;100.00;99856.31;4792882;29;21008;-70
2023/07/02 03:42:50;;;;;;;11.40;9.20;;;;;;;16.63;100.00;99856.34;4803857;29;20429;-68
2023/07/02 03:45:19;;;;;;;10.47;9.57;;;;;;;16.54;100.00;99863.38;4803460;29;20511;-71
2023/07/02 03:47:48;;;;;;;9.53;8.60;;;;;;;16.50;100.00;99867.72;4797179;29;20441;-68
2023/07/02 03:50:17;;;;;;;10.13;8.13;;;;;;;16.56;100.00;99865.81;4801606;29;20450;-70
2023/07/02 03:52:47;;;;;;;8.73;7.93;;;;;;;16.59;100.00;99871.63;4793509;29;20434;-71
2023/07/02 03:55:18;;;;;;;9.70;7.93;;;;;;;16.53;100.00;99869.91;4796887;29;20416;-70
2023/07/02 03:57:48;;;;;;;10.27;8.13;;;;;;;16.56;100.00;99874.00;4794473;29;20439;-69
2023/07/02 04:00:18;;;;;;;8.77;7.80;;;;;;;16.59;100.00;99860.69;4793890;29;20483;-69
2023/07/02 04:02:47;;;;;;;8.20;7.40;;;;;;;16.66;100.00;99866.72;4794181;29;20877;-68
2023/07/02 04:05:17;;;;;;;9.93;7.40;;;;;;;16.73;100.00;99878.25;4796037;29;20498;-69
2023/07/02 04:07:46;;;;;;;7.90;7.20;;;;;;;16.79;100.00;99874.44;4794051;29;20437;-69
2023/07/02 04:10:17;;;;;;;11.13;7.27;;;;;;;16.80;100.00;99876.06;4792215;29;20490;-69
2023/07/02 04:12:46;;;;;;;8.37;7.20;;;;;;;16.81;100.00;99874.16;4799447;29;20409;-69
2023/07/02 04:15:15;;;;;;;6.37;5.80;;;;;;;16.97;100.00;99875.03;4796520;29;20430;-69
2023/07/02 04:17:44;;;;;;;12.70;7.40;;;;;;;16.98;100.00;99877.50;4807034;29;20446;-68
2023/07/02 04:20:13;;;;;;;9.40;7.53;;;;;;;17.02;100.00;99875.06;4802742;29;20483;-69
2023/07/02 04:22:43;;;;;;;6.93;6.43;;;;;;;17.13;100.00;99883.03;4792425;29;20443;-68
2023/07/02 04:25:14;;;;;;;6.43;5.90;;;;;;;17.30;100.00;99883.59;4792774;29;20424;-68
2023/07/02 04:28:00;;;;;;;6.73;6.03;;;;;;;17.52;100.00;99883.38;4799346;29;20492;-70
2023/07/02 04:30:29;;;;;;;7.00;6.03;;;;;;;18.01;98.06;99882.84;4798639;29;20440;-69
2023/07/02 04:32:58;;;;;;;7.10;5.97;;;;;;;18.53;91.94;99891.53;4791614;29;20447;-70
2023/07/02 04:35:28;;;;;;;6.50;5.90;;;;;;;18.25;92.63;99900.31;4803419;29;20423;-72
2023/07/02 04:37:58;;;;;;;8.27;5.57;;;;;;;19.26;88.10;99910.13;4789644;29;20533;-71
2023/07/02 04:40:28;;;;;;;6.37;5.73;;;;;;;20.07;81.75;99910.41;4792716;29;20483;-71
2023/07/02 04:42:58;;;;;;;6.03;5.37;;;;;;;20.90;78.49;99907.34;4793703;29;20462;-71
2023/07/02 04:45:35;;;;;;;6.30;5.80;;;;;;;20.74;75.93;99908.63;4797137;29;20429;-70
2023/07/02 04:48:04;;;;;;;5.80;4.20;;;;;;;20.86;75.88;99914.53;4791174;29;20450;-70
2023/07/02 04:50:34;;;;;;;6.63;6.03;;;;;;;19.83;80.84;99909.50;4792145;29;20479;-70
2023/07/02 04:53:03;;;;;;;6.60;6.10;;;;;;;19.31;83.04;99913.69;4792041;29;20645;-70
2023/07/02 04:55:32;;;;;;;5.33;4.83;;;;;;;19.20;83.89;99912.09;4788307;29;20440;-70
2023/07/02 04:58:01;;;;;;;5.53;4.87;;;;;;;19.21;84.02;99926.63;4796072;29;20801;-69
2023/07/02 05:00:31;;;;;;;6.47;5.50;;;;;;;20.16;79.13;99929.81;4788777;29;20582;-72
2023/07/02 05:03:00;;;;;;;7.30;4.50;;;;;;;21.30;73.76;99932.72;4796955;29;20443;-70
2023/07/02 05:05:30;;;;;;;4.80;4.40;;;;;;;21.89;70.21;99930.16;4788220;29;20816;-71
2023/07/02 05:07:59;;;;;;;6.53;4.90;;;;;;;21.18;73.14;99925.72;4794737;29;20441;-70
2023/07/02 05:10:28;;;;;;;6.53;4.63;;;;;;;20.74;72.86;99920.44;4800692;29;20422;-69
2023/07/02 05:12:57;;;;;;;8.63;4.97;;;;;;;20.49;74.64;99928.13;4786359;29;20856;-70
2023/07/02 05:15:27;;;;;;;5.00;4.50;;;;;;;20.92;73.23;99926.28;4795499;29;20443;-70
2023/07/02 05:17:57;;;;;;;5.40;4.67;;;;;;;20.48;74.01;99932.03;4798113;29;20544;-71
2023/07/02 05:20:26;;;;;;;6.53;5.90;;;;;;;20.21;76.71;99925.09;4792396;29;21049;-70
2023/07/02 05:22:56;;;;;;;4.93;4.53;;;;;;;20.33;75.55;99936.53;4790438;29;20444;-70
2023/07/02 05:25:25;;;;;;;5.97;4.37;;;;;;;20.10;76.84;99937.28;4795733;29;20414;-70
2023/07/02 05:27:54;;;;;;;5.13;3.70;;;;;;;20.75;72.17;99937.75;4795856;29;20986;-69
2023/07/02 05:30:23;;;;;;;5.30;4.87;;;;;;;22.40;66.67;99940.34;4787540;29;20432;-71
2023/07/02 05:32:52;;;;;;;3.40;3.10;;;;;;;23.75;61.36;99944.19;4789503;29;20512;-69
2023/07/02 05:35:22;;;;;;;4.33;3.90;;;;;;;24.08;57.90;99943.94;4791897;29;20530;-69
2023/07/02 05:37:51;;;;;;;8.87;4.30;;;;;;;23.29;60.53;99938.03;4787834;29;20479;-68
2023/07/02 05:40:21;;;;;;;6.07;4.70;;;;;;;22.25;64.33;99943.38;4801073;29;20486;-70
2023/07/02 05:42:50;;;;;;;5.23;4.10;;;;;;;21.42;67.06;99952.34;4790730;29;20456;-69
2023/07/02 05:45:19;;;;;;;7.27;5.43;;;;;;;19.69;72.98;99944.19;4792403;29;20426;-69
2023/07/02 05:47:49;;;;;;;7.13;4.27;;;;;;;19.15;76.03;99941.44;4794050;29;20441;-69
2023/07/02 05:50:18;;;;;;;4.47;4.07;;;;;;;18.83;78.58;99939.13;4794907;29;20432;-68
2023/07/02 05:52:48;;;;;;;5.70;3.80;;;;;;;18.91;77.81;99941.28;4797358;29;20929;-68
2023/07/02 05:55:17;;;;;;;6.37;3.63;;;;;;;19.22;77.51;99948.25;4792498;29;20534;-69
2023/07/02 05:57:47;;;;;;;5.10;4.03;;;;;;;19.41;76.46;99948.47;4795497;29;20559;-68
2023/07/02 06:00:17;;;;;;;5.83;4.40;;;;;;;19.80;75.40;99943.03;4782680;29;20814;-71
2023/07/02 06:02:54;;;;;;;4.90;4.20;;;;;;;20.33;72.63;99946.72;4794790;29;20414;-70
2023/07/02 06:05:23;;;;;;;8.20;4.13;;;;;;;20.97;70.96;99950.97;4789777;29;20469;-70
2023/07/02 06:07:54;;;;;;;4.33;3.50;;;;;;;21.14;68.82;99948.59;4798974;29;20433;-68
2023/07/02 06:10:23;;;;;;;4.77;4.27;;;;;;;20.87;66.27;99951.91;4791211;29;20783;-70
2023/07/02 06:12:52;;;;;;;6.73;4.43;;;;;;;20.73;67.27;99945.47;4798149;29;20471;-69
2023/07/02 06:15:21;;;;;;;4.43;3.27;;;;;;;20.39;66.60;99938.13;4792259;29;20526;-69
2023/07/02 06:17:50;;;;;;;4.47;4.00;;;;;;;20.12;68.55;99946.06;4790483;29;20498;-70
2023/07/02 06:20:20;;;;;;;7.27;4.43;;;;;;;19.67;70.43;99946.38;4793817;29;20474;-70
2023/07/02 06:22:49;;;;;;;5.30;4.00;;;;;;;19.62;70.26;99952.75;4790739;29;20442;-68
2023/07/02 06:25:19;;;;;;;5.90;4.47;;;;;;;19.82;70.83;99946.28;4789637;29;20448;-71
2023/07/02 06:27:48;;;;;;;4.17;3.67;;;;;;;19.63;69.45;99950.81;4788822;29;20464;-70
2023/07/02 06:30:18;;;;;;;4.80;4.30;;;;;;;19.64;70.35;99955.22;4817523;24;21198;-70
2023/07/02 06:32:47;;;;;;;7.77;4.37;;;;;;;19.77;69.07;99947.16;4825850;29;20962;-72
2023/07/02 06:35:17;;;;;;;5.87;3.70;;;;;;;20.07;67.98;99929.63;4837529;29;20450;-71
2023/07/02 06:37:46;;;;;;;5.93;4.07;;;;;;;20.39;67.33;99929.06;4818830;29;20440;-70
2023/07/02 06:40:16;;;;;;;4.70;3.43;;;;;;;20.53;65.07;99935.50;4811536;29;20907;-70
2023/07/02 06:42:46;;;;;;;7.97;4.40;;;;;;;21.11;62.93;99938.13;4810057;29;20450;-71
2023/07/02 06:45:15;;;;;;;10.10;4.83;;;;;;;20.98;62.57;99947.94;4808057;29;20441;-71
2023/07/02 06:47:44;;;;;;;6.30;3.80;;;;;;;20.91;62.21;99952.97;4805908;29;20550;-70
2023/07/02 06:50:15;;;;;;;4.43;3.47;;;;;;;21.21;61.55;99952.63;4809260;29;20439;-70
2023/07/02 06:52:44;;;;;;;6.73;4.23;;;;;;;21.58;61.34;99940.84;4814411;29;20797;-70
2023/07/02 06:55:13;;;;;;;5.43;3.40;;;;;;;22.03;59.55;99947.56;4810590;29;20447;-70
2023/07/02 06:57:47;;;;;;;5.07;4.03;;;;;;;22.24;58.49;99947.25;4815309;29;20457;-70
2023/07/02 07:00:17;;;;;;;5.53;4.33;;;;;;;22.36;58.24;99950.34;4806864;29;20417;-70
2023/07/02 07:02:46;;;;;;;5.03;3.90;;;;;;;21.59;57.07;99941.66;4803932;29;20939;-72
2023/07/02 07:05:15;;;;;;;6.03;4.30;;;;;;;21.55;58.72;99941.41;4810613;29;20453;-71
2023/07/02 07:07:44;;;;;;;8.57;4.10;;;;;;;21.27;60.15;99941.53;4809389;29;20503;-70
2023/07/02 07:10:14;;;;;;;7.10;4.80;;;;;;;21.20;59.02;99941.94;4804704;29;20486;-70
2023/07/02 07:12:43;;;;;;;7.10;5.07;;;;;;;21.21;59.82;99952.63;4804283;29;20431;-71
2023/07/02 07:15:13;;;;;;;8.97;4.17;;;;;;;21.24;61.28;99951.22;4812181;29;20439;-71
2023/07/02 07:17:42;;;;;;;5.07;3.97;;;;;;;21.34;60.11;99950.28;4817216;29;20906;-72
2023/07/02 07:20:15;;;;;;;5.30;4.80;;;;;;;21.24;59.72;99946.53;4804032;29;20405;-71
2023/07/02 07:22:44;;;;;;;6.30;4.30;;;;;;;21.58;58.90;99948.28;4811293;29;20513;-71
2023/07/02 07:25:14;;;;;;;7.30;4.70;;;;;;;21.49;59.17;99942.63;4806577;29;20409;-71
2023/07/02 07:27:46;;;;;;;8.00;4.73;;;;;;;21.55;59.21;99951.59;4815388;29;20528;-71
2023/07/02 07:30:22;;;;;;;6.33;3.73;;;;;;;21.52;59.12;99952.22;4809074;29;20558;-71
2023/07/02 07:32:54;;;;;;;4.27;3.87;;;;;;;21.92;57.65;99962.63;4818826;29;20738;-68
2023/07/02 07:35:24;;;;;;;6.53;4.77;;;;;;;21.82;57.14;99954.50;4807142;29;20764;-70
2023/07/02 07:37:53;;;;;;;5.33;3.67;;;;;;;22.08;57.49;99955.75;4801885;29;20466;-71
2023/07/02 07:40:22;;;;;;;6.03;4.63;;;;;;;22.10;56.96;99948.03;4814611;29;20433;-72
2023/07/02 07:42:51;;;;;;;6.03;4.07;;;;;;;21.88;56.62;99960.78;4805130;29;21083;-71
2023/07/02 07:45:22;;;;;;;28.73;5.00;;;;;;;21.44;57.43;99966.66;4806436;29;20730;-71
2023/07/02 07:47:51;;;;;;;4.53;4.00;;;;;;;21.20;58.98;99966.69;4803104;29;20444;-73
2023/07/02 07:50:21;;;;;;;8.60;5.30;;;;;;;20.93;60.43;99961.75;4806427;29;20802;-73
2023/07/02 07:52:51;;;;;;;5.97;5.37;;;;;;;20.47;60.39;99964.19;4813541;29;20473;-73
2023/07/02 07:55:20;;;;;;;5.90;4.23;;;;;;;20.18;61.69;99966.88;4816978;29;20505;-71
2023/07/02 07:57:50;;;;;;;5.80;4.90;;;;;;;20.10;62.63;99966.66;4803331;29;20466;-71
2023/07/02 08:00:21;;;;;;;7.50;4.67;;;;;;;20.05;63.96;99980.44;4804352;29;20491;-71
2023/07/02 08:02:52;;;;;;;7.70;4.63;;;;;;;19.95;64.19;99989.56;4809618;29;20537;-71
2023/07/02 08:05:21;;;;;;;6.90;6.23;;;;;;;20.01;63.92;99988.44;4807752;29;20414;-71
2023/07/02 08:07:50;;;;;;;6.37;4.77;;;;;;;20.22;63.19;99989.09;4804624;29;21002;-72
2023/07/02 08:10:19;;;;;;;6.03;4.87;;;;;;;20.27;64.10;99994.53;4808217;29;20466;-71
2023/07/02 08:12:49;;;;;;;6.10;5.33;;;;;;;20.18;63.56;99993.53;4808597;29;20448;-72
2023/07/02 08:15:18;;;;;;;7.40;4.77;;;;;;;20.00;64.27;99991.44;4811980;29;20434;-72
2023/07/02 08:17:48;;;;;;;5.67;4.90;;;;;;;19.83;65.08;99992.69;4819467;29;20546;-72
2023/07/02 08:20:18;;;;;;;6.27;5.67;;;;;;;19.69;65.45;99996.34;4811974;29;20546;-72
2023/07/02 08:22:47;;;;;;;5.10;4.60;;;;;;;19.89;65.75;100001.72;4808587;29;20471;-73
2023/07/02 08:25:17;;;;;;;5.87;4.70;;;;;;;19.90;65.24;100000.56;4806907;29;20442;-72
2023/07/02 08:27:46;;;;;;;5.17;4.67;;;;;;;20.02;65.89;99992.81;4808703;29;20438;-72
2023/07/02 08:30:15;;;;;;;5.97;4.87;;;;;;;20.03;65.28;99996.38;4804927;29;20480;-71
2023/07/02 08:32:44;;;;;;;10.30;4.87;;;;;;;20.04;64.60;100003.53;4808619;29;20816;-71
2023/07/02 08:35:15;;;;;;;6.10;4.77;;;;;;;20.37;64.18;100000.00;4807239;29;20443;-71
2023/07/02 08:37:44;;;;;;;5.80;4.80;;;;;;;20.34;63.74;99997.81;4811705;29;20467;-73
2023/07/02 08:40:23;;;;;;;5.67;5.13;;;;;;;20.36;62.90;100015.66;4811932;29;20470;-71
2023/07/02 08:42:52;;;;;;;7.83;5.60;;;;;;;20.33;63.24;100013.47;4810027;29;21040;-73
2023/07/02 08:45:51;;;;;;;7.33;5.10;;;;;;;20.29;63.55;100015.13;4810644;29;20410;-71
2023/07/02 08:48:23;;;;;;;6.90;4.87;;;;;;;20.20;61.72;100019.59;4810035;29;21006;-73
2023/07/02 08:50:54;;;;;;;6.57;4.90;;;;;;;20.17;63.71;100011.94;4809030;29;21077;-72
2023/07/02 08:53:29;;;;;;;6.10;5.23;;;;;;;20.29;61.68;100017.03;4808720;29;20431;-72
2023/07/02 08:55:59;;;;;;;7.97;5.50;;;;;;;20.12;60.71;100017.47;4811971;29;20849;-72
2023/07/02 08:58:28;;;;;;;8.20;5.20;;;;;;;20.39;58.84;100017.81;4809488;29;20553;-73
2023/07/02 09:01:08;;;;;;;5.67;5.13;;;;;;;20.68;59.67;100011.50;4809602;29;20435;-73
2023/07/02 09:03:38;;;;;;;6.63;5.93;;;;;;;20.79;56.74;100015.78;4817192;29;20469;-73
2023/07/02 09:06:10;;;;;;;7.63;5.63;;;;;;;21.10;56.37;100011.63;4809799;29;20566;-71
2023/07/02 09:08:40;;;;;;;6.27;4.93;;;;;;;21.30;54.06;100012.50;4818258;29;20843;-73
2023/07/02 09:11:10;;;;;;;7.70;5.47;;;;;;;21.32;54.45;100013.84;4815953;29;20431;-72
2023/07/02 09:13:47;;;;;;;7.10;5.33;;;;;;;21.65;54.14;100023.03;4822257;29;20442;-72
2023/07/02 09:16:26;;;;;;;6.63;5.10;;;;;;;21.57;52.56;100023.72;4810835;29;20409;-73
2023/07/02 09:19:05;;;;;;;7.53;5.27;;;;;;;21.79;52.74;100018.44;4818776;29;20826;-73
2023/07/02 09:21:44;;;;;;;14.23;6.33;;;;;;;22.22;52.08;100026.66;4813521;29;20973;-73
2023/07/02 09:24:18;;;;;;;9.93;5.63;;;;;;;21.99;50.98;100026.44;4813351;29;20484;-73
2023/07/02 09:26:49;;;;;;;8.90;5.23;;;;;;;21.64;51.33;100029.66;4812768;29;20457;-73
2023/07/02 09:29:22;;;;;;;8.83;5.30;;;;;;;21.33;53.46;100032.00;4821445;29;20430;-73
2023/07/02 09:31:52;;;;;;;7.90;6.80;;;;;;;21.64;52.21;100027.72;4818209;29;20439;-73
2023/07/02 09:34:40;;;;;;;9.80;6.47;;;;;;;21.17;50.46;100028.59;4814060;29;20417;-73
2023/07/02 09:37:11;;;;;;;8.13;5.97;;;;;;;20.96;52.47;100027.16;4810370;29;20520;-71
2023/07/02 09:39:41;;;;;;;8.33;5.37;;;;;;;20.68;53.65;100020.56;4818014;29;20495;-74
2023/07/02 09:42:10;;;;;;;7.60;6.10;;;;;;;21.18;53.61;100029.44;4813679;29;20494;-71
2023/07/02 09:44:42;;;;;;;11.33;6.97;;;;;;;21.60;52.69;100015.66;4822473;29;20439;-73
2023/07/02 09:47:13;;;;;;;11.53;8.37;;;;;;;21.89;51.77;100018.28;4816550;29;20521;-74
2023/07/02 09:49:46;;;;;;;14.93;8.23;;;;;;;22.74;49.83;100023.56;4826891;29;20938;-72
2023/07/02 09:52:17;;;;;;;11.10;7.03;;;;;;;23.17;48.52;100023.31;4818511;29;20406;-74
2023/07/02 09:54:47;;;;;;;8.97;6.57;;;;;;;23.08;48.44;100025.16;4821930;29;20491;-73
2023/07/02 09:57:16;;;;;;;12.43;8.00;;;;;;;23.21;48.09;100021.56;4813558;29;20471;-73
2023/07/02 09:59:46;;;;;;;14.30;8.57;;;;;;;22.62;47.51;100019.63;4808047;29;20727;-72
2023/07/02 10:02:15;;;;;;;11.80;9.33;;;;;;;22.60;47.63;100014.44;4828445;29;21055;-73
2023/07/02 10:04:45;;;;;;;12.60;8.30;;;;;;;22.40;46.59;100012.00;4807196;29;20422;-73
2023/07/02 10:07:27;;;;;;;13.30;8.60;;;;;;;22.39;48.70;100018.66;4807893;29;20433;-74
2023/07/02 10:09:57;;;;;;;17.03;8.37;;;;;;;22.28;48.11;100019.91;4803542;29;20439;-73
2023/07/02 10:12:28;;;;;;;12.80;9.03;;;;;;;21.90;48.94;100006.16;4807046;29;20531;-72
2023/07/02 10:14:58;;;;;;;13.43;8.30;;;;;;;21.90;50.03;100003.41;4821432;29;20455;-72
2023/07/02 10:17:30;;;;;;;12.20;8.33;;;;;;;22.27;50.08;100013.59;4813736;29;20441;-72
2023/07/02 10:20:05;;;;;;;14.97;9.27;;;;;;;22.61;49.21;100012.50;4805688;29;20413;-72
2023/07/02 10:22:45;;;;;;;11.60;6.90;;;;;;;23.24;47.67;100005.19;4809395;29;20473;-71
2023/07/02 10:25:25;;;;;;;15.40;9.83;;;;;;;24.13;47.37;100021.22;4808071;29;20996;-72
2023/07/02 10:27:54;;;;;;;10.47;7.77;;;;;;;23.52;46.40;100016.28;4805168;29;20569;-71
2023/07/02 10:30:33;;;;;;;17.20;7.57;;;;;;;23.09;47.74;100024.03;4817552;29;20521;-72
2023/07/02 10:33:10;;;;;;;17.60;9.13;;;;;;;22.71;47.93;100013.13;4807892;29;20851;-73
2023/07/02 10:35:41;;;;;;;15.07;9.20;;;;;;;23.39;47.65;100023.38;4804536;29;21017;-72
2023/07/02 10:38:15;;;;;;;18.47;10.10;;;;;;;23.35;46.31;100017.69;4804468;29;20462;-71
2023/07/02 10:40:45;;;;;;;10.97;9.10;;;;;;;23.22;48.64;100017.69;4813068;29;20781;-71
2023/07/02 10:43:15;;;;;;;11.17;7.63;;;;;;;23.30;48.23;100014.19;4806096;29;20468;-73
2023/07/02 10:45:44;;;;;;;16.37;8.00;;;;;;;23.32;46.91;100003.69;4814335;29;20499;-72
2023/07/02 10:48:19;;;;;;;13.87;9.47;;;;;;;23.25;47.24;100011.53;4814880;29;20496;-73
2023/07/02 10:50:49;;;;;;;15.90;10.47;;;;;;;22.70;48.41;100016.19;4813490;29;20491;-71
2023/07/02 10:53:21;;;;;;;10.33;8.03;;;;;;;22.38;48.95;100020.56;4804620;29;20805;-71
2023/07/02 10:55:56;;;;;;;13.30;7.27;;;;;;;21.88;49.41;100016.66;4802302;29;20995;-71
2023/07/02 10:58:26;;;;;;;12.20;7.63;;;;;;;21.63;50.27;100037.13;4803347;29;20465;-72
2023/07/02 11:00:56;;;;;;;13.93;8.80;;;;;;;21.49;51.12;100027.13;4808164;29;20504;-72
2023/07/02 11:03:27;;;;;;;10.47;6.70;;;;;;;21.77;49.03;100031.69;4822929;29;20862;-72
2023/07/02 11:05:56;;;;;;;14.67;8.30;;;;;;;21.83;48.50;100036.03;4804467;29;20470;-72
2023/07/02 11:08:36;;;;;;;12.87;9.60;;;;;;;21.84;48.62;100034.06;4805276;29;20451;-72
2023/07/02 11:11:09;;;;;;;17.07;10.00;;;;;;;21.68;49.08;100038.97;4804567;29;20846;-71
2023/07/02 11:13:47;;;;;;;15.63;9.57;;;;;;;21.54;49.48;100049.09;4807590;29;20406;-71
2023/07/02 11:16:22;;;;;;;18.83;10.07;;;;;;;21.31;50.54;100038.91;4806273;29;20445;-71
2023/07/02 11:18:52;;;;;;;15.87;8.70;;;;;;;21.20;49.79;100044.50;4807301;29;20495;-71
2023/07/02 11:21:22;;;;;;;13.83;8.67;;;;;;;21.48;49.41;100040.06;4810766;29;20458;-72
2023/07/02 11:24:01;;;;;;;13.13;8.80;;;;;;;21.76;48.67;100046.56;4809146;29;20487;-73
2023/07/02 11:26:38;;;;;;;19.10;9.67;;;;;;;22.04;48.38;100031.03;4805192;29;20532;-70
2023/07/02 11:29:12;;;;;;;16.13;9.60;;;;;;;22.42;46.85;100054.69;4813039;29;20844;-71
2023/07/02 11:31:41;;;;;;;14.73;8.40;;;;;;;22.21;45.70;100031.34;4769564;29;1210552;-72
2023/07/02 11:34:14;;;;;;;15.63;7.27;;;;;;;22.02;43.15;100050.66;4810857;29;20204;-71
2023/07/02 11:36:47;;;;;;;14.07;8.10;;;;;;;22.32;43.73;100054.03;4816005;29;20462;-71
2023/07/02 11:39:18;;;;;;;15.40;9.20;;;;;;;22.21;42.69;100038.78;4814571;29;20446;-74